Time;durP1;ratioP1;P1;durP2;ratioP2;P2;SDS_P1;SDS_P2;PMS_P1;PMS_P2;Temp;Humidity;BMP_temperature;BMP_pressure;BME280_temperature;BME280_humidity;BME280_pressure;Samples;Min_cycle;Max_cycle;Signal;HPM_P1;HPM_P2
2021/12/06 00:00:23;;;;;;;8.27;6.20;;;;;;;;;;5053200;28;20449;-67
2021/12/06 00:02:50;;;;;;;8.50;6.37;;;;;;;;;;5033284;28;20420;-68
2021/12/06 00:05:16;;;;;;;11.53;6.70;;;;;;;;;;5031821;28;20786;-68
2021/12/06 00:07:43;;;;;;;7.80;6.47;;;;;;;;;;5033260;28;20414;-67
2021/12/06 00:10:10;;;;;;;10.30;6.17;;;;;;;;;;5039222;28;20461;-68
2021/12/06 00:12:36;;;;;;;7.33;5.73;;;;;;;;;;5048483;28;20425;-68
2021/12/06 00:15:04;;;;;;;6.90;6.00;;;;;;;;;;5051641;28;20453;-68
2021/12/06 00:17:30;;;;;;;7.97;6.27;;;;;;;;;;5053034;28;20892;-68
2021/12/06 00:19:57;;;;;;;9.20;5.87;;;;;;;;;;5045934;28;20423;-68
2021/12/06 00:22:23;;;;;;;7.60;6.23;;;;;;;;;;5033153;28;20386;-67
2021/12/06 00:24:50;;;;;;;7.83;5.70;;;;;;;;;;5032869;28;20926;-68
2021/12/06 00:27:16;;;;;;;7.60;5.70;;;;;;;;;;5033042;28;20423;-67
2021/12/06 00:29:42;;;;;;;7.13;5.23;;;;;;;;;;5031633;28;20433;-67
2021/12/06 00:32:08;;;;;;;8.60;6.00;;;;;;;;;;5032918;28;20403;-68
2021/12/06 00:34:36;;;;;;;8.97;6.03;;;;;;;;;;5032966;28;20926;-67
2021/12/06 00:40:09;;;;;;;12.03;6.30;;;;;;;;;;5068235;28;20512;-66
2021/12/06 00:42:35;;;;;;;7.87;6.10;;;;;;;;;;5053914;28;20801;-65
2021/12/06 00:45:03;;;;;;;8.30;5.87;;;;;;;;;;5052520;28;20469;-66
2021/12/06 00:47:29;;;;;;;8.10;6.30;;;;;;;;;;5042371;28;20468;-65
2021/12/06 00:49:55;;;;;;;7.10;5.70;;;;;;;;;;5052720;28;20418;-67
2021/12/06 00:52:21;;;;;;;7.60;6.33;;;;;;;;;;5052700;28;20419;-67
2021/12/06 00:54:48;;;;;;;9.67;5.93;;;;;;;;;;5052517;28;20431;-67
2021/12/06 00:57:14;;;;;;;7.10;5.57;;;;;;;;;;5051730;28;20465;-67
2021/12/06 00:59:41;;;;;;;7.90;6.07;;;;;;;;;;5056396;28;20404;-66
2021/12/06 01:02:07;;;;;;;7.10;5.90;;;;;;;;;;5056210;28;20822;-66
2021/12/06 01:04:35;;;;;;;8.10;5.57;;;;;;;;;;5055631;28;20402;-67
2021/12/06 01:07:01;;;;;;;9.57;6.20;;;;;;;;;;5056407;28;20467;-66
2021/12/06 01:09:27;;;;;;;9.33;6.90;;;;;;;;;;5056222;28;20431;-67
2021/12/06 01:11:53;;;;;;;12.50;7.97;;;;;;;;;;5056164;28;20425;-67
2021/12/06 01:14:20;;;;;;;9.27;7.00;;;;;;;;;;5040118;28;20415;-67
2021/12/06 01:16:46;;;;;;;9.97;7.37;;;;;;;;;;5036220;28;20473;-67
2021/12/06 01:19:13;;;;;;;9.40;7.07;;;;;;;;;;5036153;28;20403;-66
2021/12/06 01:21:54;;;;;;;12.73;9.27;;;;;;;;;;5045071;28;20910;-69
2021/12/06 01:24:27;;;;;;;11.33;7.63;;;;;;;;;;5055914;28;20781;-68
2021/12/06 01:32:46;;;;;;;10.10;8.20;;;;;;;;;;5038626;28;20507;-67
2021/12/06 01:40:13;;;;;;;12.70;8.10;;;;;;;;;;5035718;28;20754;-65
2021/12/06 01:42:39;;;;;;;10.37;7.97;;;;;;;;;;5034350;28;20751;-67
2021/12/06 01:45:06;;;;;;;10.70;8.30;;;;;;;;;;5035685;28;20482;-67
2021/12/06 01:47:33;;;;;;;12.83;8.70;;;;;;;;;;5047261;28;20422;-66
2021/12/06 01:50:04;;;;;;;10.97;8.50;;;;;;;;;;5055419;28;20812;-67
2021/12/06 01:52:32;;;;;;;10.27;8.13;;;;;;;;;;5055421;28;20415;-67
2021/12/06 01:54:59;;;;;;;10.87;8.03;;;;;;;;;;5055072;28;20426;-68
2021/12/06 01:57:26;;;;;;;12.27;9.07;;;;;;;;;;5054347;28;20556;-66
2021/12/06 01:59:53;;;;;;;12.23;9.80;;;;;;;;;;5055242;28;20980;-68
2021/12/06 02:02:20;;;;;;;14.97;10.57;;;;;;;;;;5055292;28;20393;-67
2021/12/06 02:04:46;;;;;;;12.77;10.00;;;;;;;;;;5055111;28;20405;-67
2021/12/06 02:07:15;;;;;;;11.73;8.80;;;;;;;;;;5054271;28;20458;-67
2021/12/06 02:09:42;;;;;;;11.00;9.00;;;;;;;;;;5054540;28;20965;-67
2021/12/06 02:12:09;;;;;;;13.10;9.53;;;;;;;;;;5054908;28;20964;-67
2021/12/06 02:17:12;;;;;;;11.20;8.70;;;;;;;;;;5054071;28;20471;-68
2021/12/06 02:19:42;;;;;;;10.67;8.97;;;;;;;;;;5054278;28;20403;-68
2021/12/06 02:22:09;;;;;;;12.07;9.10;;;;;;;;;;5036929;28;20412;-68
2021/12/06 02:24:37;;;;;;;12.13;8.93;;;;;;;;;;5045550;28;20447;-67
2021/12/06 02:27:04;;;;;;;12.00;8.90;;;;;;;;;;5054859;28;20915;-67
2021/12/06 02:29:31;;;;;;;12.30;9.50;;;;;;;;;;5054672;28;20886;-68
2021/12/06 02:31:57;;;;;;;10.33;8.90;;;;;;;;;;5054634;28;20889;-67
2021/12/06 02:34:23;;;;;;;12.90;9.30;;;;;;;;;;5044110;28;20424;-66
2021/12/06 02:36:49;;;;;;;12.70;9.57;;;;;;;;;;5034642;28;20467;-66
2021/12/06 02:39:22;;;;;;;13.13;10.20;;;;;;;;;;5047738;28;20403;-66
2021/12/06 02:41:49;;;;;;;15.50;10.90;;;;;;;;;;5054441;28;20398;-66
2021/12/06 02:44:16;;;;;;;17.63;11.97;;;;;;;;;;5053686;28;20416;-67
2021/12/06 02:46:42;;;;;;;12.80;9.93;;;;;;;;;;5054276;28;20496;-66
2021/12/06 02:49:08;;;;;;;13.83;10.03;;;;;;;;;;5053166;28;20737;-66
2021/12/06 02:51:34;;;;;;;14.50;10.33;;;;;;;;;;5053081;28;20430;-66
2021/12/06 02:54:00;;;;;;;14.80;11.23;;;;;;;;;;5037863;28;20444;-66
2021/12/06 02:56:33;;;;;;;14.40;10.77;;;;;;;;;;5033865;28;20487;-68
2021/12/06 02:59:01;;;;;;;13.30;10.60;;;;;;;;;;5034333;28;20418;-67
2021/12/06 03:01:32;;;;;;;13.50;9.80;;;;;;;;;;5032717;28;20494;-66
2021/12/06 03:03:59;;;;;;;13.90;11.07;;;;;;;;;;5034042;28;20416;-68
2021/12/06 03:06:25;;;;;;;15.00;10.57;;;;;;;;;;5034067;28;20407;-66
2021/12/06 03:08:56;;;;;;;15.10;11.40;;;;;;;;;;5034103;28;20459;-67
2021/12/06 03:11:27;;;;;;;16.00;11.90;;;;;;;;;;5047269;28;20419;-66
2021/12/06 03:13:54;;;;;;;17.70;12.50;;;;;;;;;;5053937;28;20407;-66
2021/12/06 03:16:20;;;;;;;17.67;12.50;;;;;;;;;;5053756;28;20941;-66
2021/12/06 03:18:47;;;;;;;13.90;11.30;;;;;;;;;;5053797;28;20875;-66
2021/12/06 03:21:14;;;;;;;18.87;12.50;;;;;;;;;;5033455;28;20496;-67
2021/12/06 03:23:40;;;;;;;18.20;12.07;;;;;;;;;;5033679;28;20917;-67
2021/12/06 03:26:06;;;;;;;15.07;11.87;;;;;;;;;;5033665;28;20424;-67
2021/12/06 03:28:40;;;;;;;18.40;12.97;;;;;;;;;;5032435;28;20845;-67
2021/12/06 03:31:07;;;;;;;16.93;12.07;;;;;;;;;;5052592;28;20438;-67
2021/12/06 03:33:35;;;;;;;20.53;12.73;;;;;;;;;;5053533;28;20400;-68
2021/12/06 03:36:01;;;;;;;14.53;11.70;;;;;;;;;;5053468;28;21059;-66
2021/12/06 03:38:27;;;;;;;15.20;11.80;;;;;;;;;;5052579;28;20496;-66
2021/12/06 03:40:53;;;;;;;19.00;12.53;;;;;;;;;;5052188;28;20906;-66
2021/12/06 03:43:19;;;;;;;17.20;11.97;;;;;;;;;;5053349;28;20765;-66
2021/12/06 03:45:45;;;;;;;16.40;11.50;;;;;;;;;;5041267;28;20423;-67
2021/12/06 03:48:11;;;;;;;16.57;12.13;;;;;;;;;;5033492;28;20410;-67
2021/12/06 03:50:37;;;;;;;16.47;11.80;;;;;;;;;;5033354;28;20442;-67
2021/12/06 03:53:03;;;;;;;15.93;11.50;;;;;;;;;;5033388;28;20408;-66
2021/12/06 03:55:29;;;;;;;16.63;11.20;;;;;;;;;;5048794;28;20482;-66
2021/12/06 03:57:55;;;;;;;16.50;12.50;;;;;;;;;;5053220;28;20431;-66
2021/12/06 04:00:21;;;;;;;20.60;12.90;;;;;;;;;;5053204;28;20763;-67
2021/12/06 04:02:47;;;;;;;21.43;14.20;;;;;;;;;;5053177;28;20908;-67
2021/12/06 04:05:13;;;;;;;22.13;15.48;;;;;;;;;;5034982;28;20435;-67
2021/12/06 04:07:39;;;;;;;23.20;14.47;;;;;;;;;;5033267;28;20633;-66
2021/12/06 04:10:08;;;;;;;21.17;14.80;;;;;;;;;;5033143;28;20403;-67
2021/12/06 04:12:34;;;;;;;26.17;15.63;;;;;;;;;;5033057;28;20922;-68
2021/12/06 04:15:00;;;;;;;21.83;15.27;;;;;;;;;;5035509;28;20781;-67
2021/12/06 04:17:26;;;;;;;22.10;15.05;;;;;;;;;;5033150;28;20418;-67
2021/12/06 04:19:52;;;;;;;25.67;15.40;;;;;;;;;;5032916;28;20246;-67
2021/12/06 04:22:22;;;;;;;24.27;15.50;;;;;;;;;;5052865;28;20444;-68
2021/12/06 04:24:48;;;;;;;27.50;17.07;;;;;;;;;;5052433;28;20421;-67
2021/12/06 04:27:15;;;;;;;24.73;15.13;;;;;;;;;;5052845;28;20414;-66
2021/12/06 04:29:43;;;;;;;23.10;14.40;;;;;;;;;;5052010;28;20488;-67
2021/12/06 04:32:09;;;;;;;25.23;14.83;;;;;;;;;;5052880;28;20926;-66
2021/12/06 04:34:35;;;;;;;25.53;16.63;;;;;;;;;;5056690;28;20472;-66
2021/12/06 04:37:01;;;;;;;24.17;15.47;;;;;;;;;;5056153;28;20531;-65
2021/12/06 04:39:28;;;;;;;24.70;15.23;;;;;;;;;;5037044;28;20828;-66
2021/12/06 04:41:54;;;;;;;25.50;17.17;;;;;;;;;;5036781;28;20407;-65
2021/12/06 04:44:20;;;;;;;28.63;17.17;;;;;;;;;;5049270;28;20418;-66
2021/12/06 04:46:47;;;;;;;28.03;16.03;;;;;;;;;;5038638;28;20431;-65
2021/12/06 04:49:13;;;;;;;26.93;16.00;;;;;;;;;;5035558;28;20411;-66
2021/12/06 04:51:41;;;;;;;27.10;15.60;;;;;;;;;;5036634;28;20510;-67
2021/12/06 04:54:07;;;;;;;23.77;15.40;;;;;;;;;;5036300;28;20457;-66
2021/12/06 04:56:35;;;;;;;30.30;15.57;;;;;;;;;;5036288;28;20483;-67
2021/12/06 04:59:14;;;;;;;27.40;15.23;;;;;;;;;;5036538;28;20945;-67
2021/12/06 05:01:41;;;;;;;24.83;15.70;;;;;;;;;;5036481;28;20423;-68
2021/12/06 05:04:12;;;;;;;23.33;15.07;;;;;;;;;;5036269;28;20410;-67
2021/12/06 05:06:40;;;;;;;23.07;15.17;;;;;;;;;;5036480;28;20411;-67
2021/12/06 05:09:12;;;;;;;24.67;15.17;;;;;;;;;;5035082;28;20416;-67
2021/12/06 05:11:38;;;;;;;26.43;15.60;;;;;;;;;;5043278;28;20427;-67
2021/12/06 05:14:05;;;;;;;22.67;15.43;;;;;;;;;;5056057;28;20493;-67
2021/12/06 05:16:33;;;;;;;21.17;13.50;;;;;;;;;;5056012;28;20479;-68
2021/12/06 05:18:59;;;;;;;19.70;14.00;;;;;;;;;;5054852;28;20414;-68
2021/12/06 05:21:25;;;;;;;26.60;14.90;;;;;;;;;;5037063;28;20424;-68
2021/12/06 05:23:51;;;;;;;22.30;14.00;;;;;;;;;;5034358;28;20427;-67
2021/12/06 05:26:18;;;;;;;19.47;13.80;;;;;;;;;;5035817;28;20813;-67
2021/12/06 05:28:46;;;;;;;25.53;15.10;;;;;;;;;;5051904;28;20902;-66
2021/12/06 05:31:15;;;;;;;24.30;14.40;;;;;;;;;;5055800;28;20418;-66
2021/12/06 05:33:46;;;;;;;19.50;12.67;;;;;;;;;;5055897;28;20399;-67
2021/12/06 05:36:13;;;;;;;20.33;12.80;;;;;;;;;;5052275;28;20983;-66
2021/12/06 05:38:39;;;;;;;20.10;14.00;;;;;;;;;;5035779;28;20412;-65
2021/12/06 05:41:05;;;;;;;19.80;13.43;;;;;;;;;;5035708;28;20435;-66
2021/12/06 05:43:31;;;;;;;21.73;12.87;;;;;;;;;;5035679;28;20404;-66
2021/12/06 05:45:58;;;;;;;25.93;14.50;;;;;;;;;;5044903;28;20430;-66
2021/12/06 05:48:24;;;;;;;23.95;14.55;;;;;;;;;;5055588;28;20414;-65
2021/12/06 05:50:51;;;;;;;24.00;14.27;;;;;;;;;;5055487;28;20260;-66
2021/12/06 05:53:17;;;;;;;27.45;14.20;;;;;;;;;;5054506;28;20425;-65
2021/12/06 05:55:43;;;;;;;26.97;14.80;;;;;;;;;;5055152;28;20298;-65
2021/12/06 05:58:11;;;;;;;25.40;13.60;;;;;;;;;;5055426;28;20403;-66
2021/12/06 06:00:37;;;;;;;22.07;13.70;;;;;;;;;;5055280;28;20949;-66
2021/12/06 06:03:05;;;;;;;26.63;14.20;;;;;;;;;;5054295;28;20436;-66
2021/12/06 06:05:31;;;;;;;19.53;12.27;;;;;;;;;;5055353;28;20460;-66
2021/12/06 06:07:57;;;;;;;25.00;14.40;;;;;;;;;;5055182;28;20479;-65
2021/12/06 06:10:23;;;;;;;20.73;12.70;;;;;;;;;;5054328;28;20415;-67
2021/12/06 06:12:49;;;;;;;19.50;12.80;;;;;;;;;;5055099;28;20874;-67
2021/12/06 06:15:15;;;;;;;21.60;14.17;;;;;;;;;;5054982;28;20454;-67
2021/12/06 06:17:43;;;;;;;28.13;15.00;;;;;;;;;;5054886;28;20421;-67
2021/12/06 06:20:21;;;;;;;26.40;14.20;;;;;;;;;;5047460;28;20447;-69
2021/12/06 06:22:47;;;;;;;22.93;14.07;;;;;;;;;;5036852;28;20423;-67
2021/12/06 06:25:15;;;;;;;23.00;14.27;;;;;;;;;;5034880;28;20424;-69
2021/12/06 06:27:41;;;;;;;23.47;13.73;;;;;;;;;;5034709;28;20408;-67
2021/12/06 06:30:07;;;;;;;25.00;14.70;;;;;;;;;;5034751;28;20447;-69
2021/12/06 06:32:33;;;;;;;24.40;14.67;;;;;;;;;;5034728;28;20540;-68
2021/12/06 06:35:00;;;;;;;23.93;13.97;;;;;;;;;;5033563;28;20447;-67
2021/12/06 06:37:26;;;;;;;25.10;14.00;;;;;;;;;;5042765;28;20419;-67
2021/12/06 06:39:52;;;;;;;21.63;13.40;;;;;;;;;;5054423;28;20418;-67
2021/12/06 06:42:22;;;;;;;21.07;13.17;;;;;;;;;;5054225;28;20414;-66
2021/12/06 06:44:49;;;;;;;21.23;13.17;;;;;;;;;;5054382;28;20411;-67
2021/12/06 06:47:15;;;;;;;26.70;14.83;;;;;;;;;;5053694;28;20426;-67
2021/12/06 06:49:40;;;;;;;23.80;13.77;;;;;;;;;;5054261;28;20823;-67
2021/12/06 06:52:06;;;;;;;24.97;14.33;;;;;;;;;;5054318;28;20411;-67
2021/12/06 06:54:32;;;;;;;24.03;13.40;;;;;;;;;;5047911;28;20917;-67
2021/12/06 06:56:58;;;;;;;21.93;13.00;;;;;;;;;;5033847;28;20502;-69
2021/12/06 06:59:24;;;;;;;21.43;13.07;;;;;;;;;;5034168;28;20541;-70
2021/12/06 07:01:51;;;;;;;30.07;15.50;;;;;;;;;;5034165;28;20557;-69
2021/12/06 07:04:17;;;;;;;25.87;14.30;;;;;;;;;;5032639;28;20427;-68
2021/12/06 07:06:44;;;;;;;27.17;14.80;;;;;;;;;;5034022;28;20498;-68
2021/12/06 07:09:10;;;;;;;22.50;13.63;;;;;;;;;;5033947;28;20428;-68
2021/12/06 07:11:36;;;;;;;22.63;14.00;;;;;;;;;;5033709;28;20834;-69
2021/12/06 07:14:02;;;;;;;25.73;14.33;;;;;;;;;;5033937;28;20411;-66
2021/12/06 07:16:29;;;;;;;25.70;14.23;;;;;;;;;;5033918;28;20621;-67
2021/12/06 07:18:55;;;;;;;22.60;12.90;;;;;;;;;;5033842;28;20411;-68
2021/12/06 07:21:21;;;;;;;27.30;13.73;;;;;;;;;;5051402;28;20542;-67
2021/12/06 07:23:48;;;;;;;26.63;13.13;;;;;;;;;;5053679;28;20423;-68
2021/12/06 07:26:16;;;;;;;25.80;14.77;;;;;;;;;;5053662;28;20929;-66
2021/12/06 07:28:43;;;;;;;27.03;14.03;;;;;;;;;;5052731;28;20447;-68
2021/12/06 07:31:12;;;;;;;24.77;12.60;;;;;;;;;;5053523;28;20434;-66
2021/12/06 07:33:39;;;;;;;23.90;13.93;;;;;;;;;;5053570;28;20410;-66
2021/12/06 07:36:06;;;;;;;21.87;13.07;;;;;;;;;;5052757;28;20466;-65
2021/12/06 07:38:34;;;;;;;29.40;14.23;;;;;;;;;;5053459;28;20407;-65
2021/12/06 07:41:01;;;;;;;28.03;13.50;;;;;;;;;;5053330;28;20410;-67
2021/12/06 07:43:27;;;;;;;28.83;15.10;;;;;;;;;;5051977;28;20921;-65
2021/12/06 07:45:53;;;;;;;21.70;12.33;;;;;;;;;;5052426;28;20433;-65
2021/12/06 07:48:20;;;;;;;24.80;14.10;;;;;;;;;;5052160;28;20424;-66
2021/12/06 07:50:46;;;;;;;25.90;14.80;;;;;;;;;;5053055;28;20430;-66
2021/12/06 07:53:12;;;;;;;21.03;12.23;;;;;;;;;;5052298;28;20444;-66
2021/12/06 07:55:38;;;;;;;26.27;13.17;;;;;;;;;;5052937;28;20467;-65
2021/12/06 07:58:08;;;;;;;23.70;13.10;;;;;;;;;;5053251;28;20773;-66
2021/12/06 08:00:36;;;;;;;24.50;13.33;;;;;;;;;;5052975;28;20410;-66
2021/12/06 08:03:03;;;;;;;22.37;13.53;;;;;;;;;;5033530;28;20431;-67
2021/12/06 08:05:36;;;;;;;25.73;13.40;;;;;;;;;;5031904;28;20900;-67
2021/12/06 08:08:04;;;;;;;26.23;14.23;;;;;;;;;;5031459;28;20442;-67
2021/12/06 08:10:31;;;;;;;26.73;14.60;;;;;;;;;;5048560;28;20432;-68
2021/12/06 08:12:57;;;;;;;23.07;13.90;;;;;;;;;;5052959;28;20411;-67
2021/12/06 08:15:23;;;;;;;24.50;12.20;;;;;;;;;;5051546;28;20467;-67
2021/12/06 08:17:49;;;;;;;21.77;13.80;;;;;;;;;;5052871;28;20421;-67
2021/12/06 08:20:15;;;;;;;22.57;13.30;;;;;;;;;;5034763;28;20915;-68
2021/12/06 08:22:42;;;;;;;24.50;12.90;;;;;;;;;;5049688;28;20418;-65
2021/12/06 08:25:09;;;;;;;27.80;14.00;;;;;;;;;;5052755;28;20435;-65
2021/12/06 08:27:35;;;;;;;21.33;12.47;;;;;;;;;;5047020;28;20911;-66
2021/12/06 08:30:01;;;;;;;21.57;12.20;;;;;;;;;;5032919;28;20759;-68
2021/12/06 08:32:27;;;;;;;22.93;12.67;;;;;;;;;;5032828;28;20407;-67
2021/12/06 08:34:53;;;;;;;21.77;12.13;;;;;;;;;;5032857;28;20420;-69
2021/12/06 08:37:19;;;;;;;20.03;11.83;;;;;;;;;;5050338;28;20971;-66
2021/12/06 08:39:45;;;;;;;20.17;11.87;;;;;;;;;;5052319;28;20405;-68
2021/12/06 08:42:11;;;;;;;17.30;10.43;;;;;;;;;;5051528;28;20407;-67
2021/12/06 08:44:37;;;;;;;19.00;11.20;;;;;;;;;;5043482;28;20422;-68
2021/12/06 08:47:04;;;;;;;19.20;11.23;;;;;;;;;;5032881;28;20473;-68
2021/12/06 08:49:30;;;;;;;19.60;11.30;;;;;;;;;;5032800;28;20891;-68
2021/12/06 08:51:57;;;;;;;19.93;10.93;;;;;;;;;;5032784;28;20402;-69
2021/12/06 08:54:26;;;;;;;22.23;11.13;;;;;;;;;;5046603;28;20438;-70
2021/12/06 08:56:54;;;;;;;18.23;10.87;;;;;;;;;;5052277;28;20480;-67
2021/12/06 08:59:20;;;;;;;20.33;11.50;;;;;;;;;;5052561;28;20407;-67
2021/12/06 09:01:46;;;;;;;19.13;11.17;;;;;;;;;;5039271;28;20453;-68
2021/12/06 09:04:12;;;;;;;18.47;11.17;;;;;;;;;;5032583;28;20402;-67
2021/12/06 09:06:43;;;;;;;19.33;10.50;;;;;;;;;;5032734;28;20441;-67
2021/12/06 09:09:10;;;;;;;14.83;8.47;;;;;;;;;;5034842;28;20419;-68
2021/12/06 09:11:41;;;;;;;17.20;9.60;;;;;;;;;;5052452;28;20458;-68
2021/12/06 09:14:08;;;;;;;16.07;9.80;;;;;;;;;;5052364;28;20410;-68
2021/12/06 09:16:36;;;;;;;13.43;8.43;;;;;;;;;;5052302;28;20472;-68
2021/12/06 09:19:03;;;;;;;14.20;9.03;;;;;;;;;;5051578;28;20480;-67
2021/12/06 09:21:29;;;;;;;15.77;9.00;;;;;;;;;;5055573;28;20417;-68
2021/12/06 09:24:00;;;;;;;13.93;8.83;;;;;;;;;;5055599;28;20935;-67
2021/12/06 09:26:28;;;;;;;15.03;9.73;;;;;;;;;;5055795;28;20406;-67
2021/12/06 09:28:54;;;;;;;14.97;10.03;;;;;;;;;;5038341;28;20421;-67
2021/12/06 09:31:20;;;;;;;14.93;8.80;;;;;;;;;;5035778;28;20419;-67
2021/12/06 09:33:46;;;;;;;16.70;10.03;;;;;;;;;;5035789;28;20465;-68
2021/12/06 09:36:13;;;;;;;16.20;9.67;;;;;;;;;;5044107;28;20482;-69
2021/12/06 09:38:40;;;;;;;16.70;10.27;;;;;;;;;;5055676;28;20402;-68
2021/12/06 09:41:12;;;;;;;19.27;10.00;;;;;;;;;;5055704;28;20506;-67
2021/12/06 09:43:42;;;;;;;18.03;9.70;;;;;;;;;;5047278;28;20412;-67
2021/12/06 09:46:09;;;;;;;13.30;8.27;;;;;;;;;;5035737;28;20476;-67
2021/12/06 09:48:35;;;;;;;14.40;9.27;;;;;;;;;;5035562;28;20399;-67
2021/12/06 09:51:05;;;;;;;15.13;8.87;;;;;;;;;;5035544;28;20415;-67
2021/12/06 09:53:32;;;;;;;16.17;9.43;;;;;;;;;;5049468;28;20812;-68
2021/12/06 09:56:00;;;;;;;16.83;9.87;;;;;;;;;;5055117;28;20482;-67
2021/12/06 09:58:26;;;;;;;14.53;8.83;;;;;;;;;;5055505;28;20415;-69
2021/12/06 10:00:57;;;;;;;13.87;8.67;;;;;;;;;;5055238;28;20442;-69
2021/12/06 10:03:26;;;;;;;18.40;9.37;;;;;;;;;;5054411;28;20413;-70
2021/12/06 10:05:54;;;;;;;15.13;8.90;;;;;;;;;;5055155;28;20442;-67
2021/12/06 10:08:20;;;;;;;14.63;8.83;;;;;;;;;;5055199;28;20418;-67
2021/12/06 10:10:46;;;;;;;18.33;10.20;;;;;;;;;;5053120;28;20886;-68
2021/12/06 10:13:12;;;;;;;18.27;9.97;;;;;;;;;;5035148;28;20411;-67
2021/12/06 10:15:41;;;;;;;15.93;8.70;;;;;;;;;;5035072;28;20462;-67
2021/12/06 10:18:09;;;;;;;17.90;10.07;;;;;;;;;;5034982;28;20416;-67
2021/12/06 10:20:35;;;;;;;18.37;9.17;;;;;;;;;;5034830;28;20909;-69
2021/12/06 10:23:02;;;;;;;13.07;7.73;;;;;;;;;;5034772;28;20777;-68
2021/12/06 10:25:36;;;;;;;15.00;8.63;;;;;;;;;;5034919;28;20413;-66
2021/12/06 10:28:04;;;;;;;16.50;8.57;;;;;;;;;;5035021;28;20419;-67
2021/12/06 10:30:31;;;;;;;19.33;8.97;;;;;;;;;;5036416;28;20422;-69
2021/12/06 10:33:02;;;;;;;15.80;8.77;;;;;;;;;;5053629;28;20450;-69
2021/12/06 10:35:28;;;;;;;17.00;8.00;;;;;;;;;;5054557;28;20454;-68
2021/12/06 10:37:56;;;;;;;17.80;8.57;;;;;;;;;;5053811;28;20425;-69
2021/12/06 10:40:27;;;;;;;13.20;8.13;;;;;;;;;;5053154;28;20398;-69
2021/12/06 10:42:54;;;;;;;10.87;6.90;;;;;;;;;;5054492;28;20395;-69
2021/12/06 10:45:25;;;;;;;12.87;7.17;;;;;;;;;;5053566;28;20914;-69
2021/12/06 10:48:05;;;;;;;15.30;7.23;;;;;;;;;;5054351;28;20402;-68
2021/12/06 10:50:31;;;;;;;9.70;6.30;;;;;;;;;;5054278;28;20869;-69
2021/12/06 10:52:59;;;;;;;14.10;6.77;;;;;;;;;;5052899;28;20437;-69
2021/12/06 10:55:28;;;;;;;7.40;5.70;;;;;;;;;;5042516;28;20470;-67
2021/12/06 10:57:59;;;;;;;8.23;5.40;;;;;;;;;;5032802;28;20989;-68
2021/12/06 11:00:28;;;;;;;9.27;5.80;;;;;;;;;;5034305;28;20912;-67
2021/12/06 11:02:55;;;;;;;7.23;4.83;;;;;;;;;;5034167;28;20524;-68
2021/12/06 11:05:22;;;;;;;12.40;4.90;;;;;;;;;;5049122;28;20769;-69
2021/12/06 11:07:55;;;;;;;7.83;5.20;;;;;;;;;;5054026;28;20406;-68
2021/12/06 11:10:25;;;;;;;7.37;4.80;;;;;;;;;;5053862;28;20401;-67
2021/12/06 11:13:11;;;;;;;7.97;4.70;;;;;;;;;;5053788;28;20839;-67
2021/12/06 11:15:50;;;;;;;8.87;5.03;;;;;;;;;;5035187;28;20493;-67
2021/12/06 11:18:28;;;;;;;6.03;4.40;;;;;;;;;;5033947;28;20421;-67
2021/12/06 11:20:54;;;;;;;8.77;5.37;;;;;;;;;;5033875;28;20920;-68
2021/12/06 11:23:20;;;;;;;10.90;5.47;;;;;;;;;;5033480;28;20490;-67
2021/12/06 11:25:59;;;;;;;9.10;5.23;;;;;;;;;;5033738;28;20405;-67
2021/12/06 11:28:30;;;;;;;9.47;5.30;;;;;;;;;;5033751;28;20414;-67
2021/12/06 11:30:58;;;;;;;9.87;5.77;;;;;;;;;;5032138;28;20416;-67
2021/12/06 11:33:31;;;;;;;9.20;6.10;;;;;;;;;;5032275;28;20406;-67
2021/12/06 11:35:58;;;;;;;7.40;5.20;;;;;;;;;;5033635;28;20470;-66
2021/12/06 11:38:24;;;;;;;9.90;5.70;;;;;;;;;;5042764;28;20418;-66
2021/12/06 11:40:55;;;;;;;7.73;5.50;;;;;;;;;;5053340;28;20451;-69
2021/12/06 11:43:21;;;;;;;9.80;6.07;;;;;;;;;;5052443;28;20806;-67
2021/12/06 11:45:56;;;;;;;8.30;5.43;;;;;;;;;;5052022;28;20564;-69
2021/12/06 11:48:22;;;;;;;8.50;5.00;;;;;;;;;;5033299;28;20413;-68
2021/12/06 11:50:50;;;;;;;9.17;5.90;;;;;;;;;;5033253;28;20414;-68
2021/12/06 11:53:21;;;;;;;9.77;5.57;;;;;;;;;;5032107;28;20477;-68
2021/12/06 11:55:49;;;;;;;9.30;5.30;;;;;;;;;;5031684;28;20457;-68
2021/12/06 11:58:26;;;;;;;8.40;6.50;;;;;;;;;;5033265;28;20430;-69
2021/12/06 12:01:09;;;;;;;8.63;6.60;;;;;;;;;;5033044;28;20414;-69
2021/12/06 12:03:36;;;;;;;10.20;5.00;;;;;;;;;;5032940;28;20426;-68
2021/12/06 12:06:02;;;;;;;7.67;5.23;;;;;;;;;;5033101;28;20414;-69
2021/12/06 12:08:32;;;;;;;8.30;5.10;;;;;;;;;;5033152;28;20418;-68
2021/12/06 12:10:59;;;;;;;8.07;5.23;;;;;;;;;;5031597;28;20418;-68
2021/12/06 12:13:35;;;;;;;6.80;5.10;;;;;;;;;;5039454;28;20422;-68
2021/12/06 12:16:03;;;;;;;6.80;4.30;;;;;;;;;;5052909;28;20460;-67
2021/12/06 12:18:30;;;;;;;5.83;4.10;;;;;;;;;;5052989;28;20418;-67
2021/12/06 12:20:57;;;;;;;6.60;3.87;;;;;;;;;;5053034;28;20441;-68
2021/12/06 12:23:23;;;;;;;6.80;4.37;;;;;;;;;;5051748;28;20948;-68
2021/12/06 12:26:05;;;;;;;7.70;4.50;;;;;;;;;;5052715;28;20398;-68
2021/12/06 12:28:36;;;;;;;10.57;3.80;;;;;;;;;;5052589;28;20429;-68
2021/12/06 12:31:03;;;;;;;4.73;3.17;;;;;;;;;;5044450;28;20423;-68
2021/12/06 12:33:29;;;;;;;6.80;4.20;;;;;;;;;;5032803;28;20756;-70
2021/12/06 12:36:02;;;;;;;6.10;4.13;;;;;;;;;;5034388;28;20461;-68
2021/12/06 12:38:29;;;;;;;4.30;3.17;;;;;;;;;;5032837;28;20437;-67
2021/12/06 12:41:01;;;;;;;5.50;3.63;;;;;;;;;;5047170;28;20936;-67
2021/12/06 12:43:32;;;;;;;4.50;3.13;;;;;;;;;;5052575;28;20481;-68
2021/12/06 12:46:03;;;;;;;5.23;2.70;;;;;;;;;;5052863;28;20391;-67
2021/12/06 12:48:43;;;;;;;3.90;2.47;;;;;;;;;;5046305;28;20418;-68
2021/12/06 12:51:10;;;;;;;5.07;2.90;;;;;;;;;;5032694;28;20410;-68
2021/12/06 12:54:05;;;;;;;4.43;3.53;;;;;;;;;;5033079;28;20644;-68
2021/12/06 12:56:42;;;;;;;6.30;3.63;;;;;;;;;;5035678;28;20521;-70
2021/12/06 12:59:17;;;;;;;6.07;4.20;;;;;;;;;;5048720;28;20498;-69
2021/12/06 13:01:45;;;;;;;4.60;3.73;;;;;;;;;;5056306;28;20393;-69
2021/12/06 13:04:12;;;;;;;7.13;4.33;;;;;;;;;;5056259;28;20466;-70
2021/12/06 13:06:40;;;;;;;6.33;3.60;;;;;;;;;;5056335;28;20768;-69
2021/12/06 13:09:18;;;;;;;7.70;4.07;;;;;;;;;;5055409;28;20424;-68
2021/12/06 13:11:49;;;;;;;5.40;3.97;;;;;;;;;;5056312;28;20486;-69
2021/12/06 13:14:27;;;;;;;7.50;4.70;;;;;;;;;;5056238;28;20767;-69
2021/12/06 13:17:01;;;;;;;5.47;4.10;;;;;;;;;;5055991;28;20854;-70
2021/12/06 13:19:54;;;;;;;4.77;4.10;;;;;;;;;;5036218;28;20882;-69
2021/12/06 13:22:30;;;;;;;5.60;3.87;;;;;;;;;;5036127;28;20391;-68
2021/12/06 13:24:57;;;;;;;5.90;4.00;;;;;;;;;;5035950;28;20438;-68
2021/12/06 13:27:23;;;;;;;5.23;4.27;;;;;;;;;;5034613;28;20410;-70
2021/12/06 13:30:07;;;;;;;5.77;4.47;;;;;;;;;;5036064;28;20468;-67
2021/12/06 13:32:41;;;;;;;6.67;4.37;;;;;;;;;;5035840;28;20410;-67
2021/12/06 13:35:18;;;;;;;6.80;5.03;;;;;;;;;;5035729;28;20402;-68
2021/12/06 13:37:58;;;;;;;16.20;6.63;;;;;;;;;;5052663;28;20433;-67
2021/12/06 13:40:24;;;;;;;14.70;7.40;;;;;;;;;;5055515;28;20481;-69
2021/12/06 13:42:51;;;;;;;11.90;6.53;;;;;;;;;;5054253;28;20398;-67
2021/12/06 13:45:21;;;;;;;7.87;5.53;;;;;;;;;;5043228;28;20914;-68
2021/12/06 13:47:48;;;;;;;8.60;5.90;;;;;;;;;;5035554;28;20458;-66
2021/12/06 13:50:16;;;;;;;9.23;5.80;;;;;;;;;;5035412;28;20406;-68
2021/12/06 13:52:52;;;;;;;9.00;6.37;;;;;;;;;;5040717;28;20784;-68
2021/12/06 13:55:37;;;;;;;11.03;6.50;;;;;;;;;;5055376;28;20567;-67
2021/12/06 13:58:05;;;;;;;11.87;6.37;;;;;;;;;;5055533;28;20414;-68
2021/12/06 14:00:42;;;;;;;10.93;6.20;;;;;;;;;;5055205;28;20497;-67
2021/12/06 14:03:12;;;;;;;16.63;7.50;;;;;;;;;;5055212;28;20416;-66
2021/12/06 14:05:40;;;;;;;11.73;6.13;;;;;;;;;;5054537;28;20439;-66
2021/12/06 14:08:06;;;;;;;9.53;5.50;;;;;;;;;;5055185;28;20393;-66
2021/12/06 14:10:36;;;;;;;11.47;4.87;;;;;;;;;;5054255;28;20424;-66
2021/12/06 14:13:07;;;;;;;4.70;3.27;;;;;;;;;;5055258;28;20548;-68
2021/12/06 14:18:29;;;;;;;4.53;3.50;;;;;;;;;;5053582;28;20423;-66
2021/12/06 14:20:56;;;;;;;4.13;3.13;;;;;;;;;;5034921;28;20402;-66
2021/12/06 14:23:24;;;;;;;5.80;3.90;;;;;;;;;;5034823;28;20422;-66
2021/12/06 14:25:52;;;;;;;13.60;8.07;;;;;;;;;;5034801;28;20435;-65
2021/12/06 14:28:19;;;;;;;14.80;8.27;;;;;;;;;;5034974;28;20391;-66
2021/12/06 14:30:46;;;;;;;14.67;8.50;;;;;;;;;;5034634;28;20452;-65
2021/12/06 14:33:12;;;;;;;13.20;7.73;;;;;;;;;;5050511;28;20447;-70
2021/12/06 14:35:38;;;;;;;9.70;6.40;;;;;;;;;;5042060;28;20481;-67
2021/12/06 14:38:05;;;;;;;8.40;6.00;;;;;;;;;;5034611;28;20413;-68
2021/12/06 14:40:31;;;;;;;16.37;5.80;;;;;;;;;;5034535;28;20414;-68
2021/12/06 14:42:57;;;;;;;6.53;3.03;;;;;;;;;;5034506;28;20413;-68
2021/12/06 14:45:24;;;;;;;4.87;3.20;;;;;;;;;;5036826;28;20513;-68
2021/12/06 14:47:58;;;;;;;4.83;3.37;;;;;;;;;;5034521;28;20399;-68
2021/12/06 14:50:35;;;;;;;3.33;2.73;;;;;;;;;;5033089;28;20423;-67
2021/12/06 14:53:05;;;;;;;4.03;3.00;;;;;;;;;;5034373;28;20432;-68